DAL4240 SKBQ-SKBO
Flight info
| Callsign | DAL4240 |
|---|---|
| Flight time | 1h 58m |
| Altitude | 15000 |
| Route | ISOTO3B ISOTO A301 LONAK DCT GRUDE |
| Aircraft | DC6/M-SDE1FGHIRWXY/S |
Departure
| Time | 2026-04-21 20:57 |
|---|---|
| Airport | Ernesto Cortissoz International Airport (SKBQ) |
Arrival
| Time | 2026-04-21 22:55 |
|---|---|
| Airport | El Dorado International Airport (SKBO) |
| Time | Latitude | Longitude | Altitude | Speed | Heading |
|---|---|---|---|---|---|
| 2026-04-21 20:32 | 10.88695 | -74.77847 | 96 ft | 0 kts | 309° |
| 2026-04-21 20:36 | 10.88690 | -74.77841 | 97 ft | 4 kts | 308° |
| 2026-04-21 20:37 | 10.88676 | -74.77817 | 97 ft | 4 kts | 285° |
| 2026-04-21 20:37 | 10.88682 | -74.77795 | 96 ft | 2 kts | 222° |
| 2026-04-21 20:37 | 10.88683 | -74.77794 | 96 ft | 5 kts | 221° |
| 2026-04-21 20:50 | 10.88681 | -74.77796 | 96 ft | 2 kts | 219° |
| 2026-04-21 20:50 | 10.88657 | -74.77815 | 96 ft | 7 kts | 219° |
| 2026-04-21 20:51 | 10.88611 | -74.77853 | 96 ft | 11 kts | 219° |
| 2026-04-21 20:51 | 10.88563 | -74.77915 | 96 ft | 11 kts | 288° |
| 2026-04-21 20:51 | 10.88559 | -74.77976 | 97 ft | 10 kts | 225° |
| 2026-04-21 20:51 | 10.88495 | -74.78031 | 97 ft | 14 kts | 219° |
| 2026-04-21 20:52 | 10.88423 | -74.78109 | 97 ft | 17 kts | 252° |
| 2026-04-21 20:52 | 10.88437 | -74.78232 | 98 ft | 19 kts | 283° |
| 2026-04-21 20:52 | 10.88372 | -74.78340 | 99 ft | 20 kts | 222° |
| 2026-04-21 20:52 | 10.88258 | -74.78438 | 101 ft | 23 kts | 220° |
| 2026-04-21 20:53 | 10.88131 | -74.78546 | 104 ft | 25 kts | 220° |
| 2026-04-21 20:53 | 10.87999 | -74.78659 | 106 ft | 16 kts | 219° |
| 2026-04-21 20:53 | 10.87929 | -74.78720 | 108 ft | 7 kts | 220° |
| 2026-04-21 20:53 | 10.87882 | -74.78760 | 109 ft | 10 kts | 221° |
| 2026-04-21 20:54 | 10.87862 | -74.78830 | 110 ft | 12 kts | 270° |
| 2026-04-21 20:54 | 10.87870 | -74.78902 | 109 ft | 8 kts | 303° |
| 2026-04-21 20:54 | 10.87879 | -74.78914 | 111 ft | 0 kts | 314° |
| 2026-04-21 20:54 | 10.87882 | -74.78916 | 111 ft | 4 kts | 314° |
| 2026-04-21 20:55 | 10.87926 | -74.78951 | 110 ft | 10 kts | 346° |
| 2026-04-21 20:55 | 10.87984 | -74.78934 | 108 ft | 8 kts | 41° |
| 2026-04-21 20:55 | 10.87987 | -74.78931 | 108 ft | 0 kts | 41° |
| 2026-04-21 20:56 | 10.88034 | -74.78891 | 107 ft | 30 kts | 40° |
| 2026-04-21 20:56 | 10.88334 | -74.78635 | 103 ft | 81 kts | 40° |
| 2026-04-21 20:56 | 10.88851 | -74.78179 | 134 ft | 113 kts | 41° |
| 2026-04-21 20:56 | 10.89463 | -74.77612 | 268 ft | 125 kts | 36° |
| 2026-04-21 20:57 | 10.90148 | -74.77016 | 463 ft | 134 kts | 34° |
| 2026-04-21 20:57 | 10.90912 | -74.76405 | 665 ft | 145 kts | 29° |
| 2026-04-21 20:57 | 10.91762 | -74.75819 | 951 ft | 148 kts | 25° |
| 2026-04-21 20:57 | 10.92646 | -74.75252 | 1115 ft | 152 kts | 36° |
| 2026-04-21 20:58 | 10.93059 | -74.74267 | 1218 ft | 163 kts | 88° |
| 2026-04-21 20:58 | 10.92481 | -74.73302 | 1465 ft | 167 kts | 141° |
| 2026-04-21 20:58 | 10.91387 | -74.72962 | 1845 ft | 160 kts | 154° |
| 2026-04-21 20:58 | 10.90402 | -74.72457 | 2026 ft | 161 kts | 145° |
| 2026-04-21 20:59 | 10.89391 | -74.71900 | 2133 ft | 168 kts | 145° |
| 2026-04-21 20:59 | 10.88340 | -74.71335 | 2286 ft | 173 kts | 148° |
| 2026-04-21 20:59 | 10.87223 | -74.70848 | 2469 ft | 177 kts | 154° |
| 2026-04-21 20:59 | 10.86046 | -74.70455 | 2666 ft | 179 kts | 159° |
| 2026-04-21 21:00 | 10.84839 | -74.70120 | 2876 ft | 180 kts | 162° |
| 2026-04-21 21:00 | 10.83627 | -74.69783 | 3093 ft | 180 kts | 160° |
| 2026-04-21 21:00 | 10.82422 | -74.69425 | 3301 ft | 181 kts | 160° |
| 2026-04-21 21:00 | 10.81198 | -74.69102 | 3477 ft | 182 kts | 165° |
| 2026-04-21 21:01 | 10.79950 | -74.68942 | 3657 ft | 184 kts | 175° |
| 2026-04-21 21:01 | 10.78680 | -74.69016 | 3869 ft | 183 kts | 185° |
| 2026-04-21 21:01 | 10.77442 | -74.69286 | 4100 ft | 182 kts | 193° |
| 2026-04-21 21:01 | 10.76255 | -74.69729 | 4311 ft | 181 kts | 201° |
| 2026-04-21 21:02 | 10.75142 | -74.70330 | 4513 ft | 181 kts | 208° |
| 2026-04-21 21:02 | 10.74046 | -74.70950 | 4759 ft | 179 kts | 205° |
| 2026-04-21 21:02 | 10.72940 | -74.71546 | 4969 ft | 179 kts | 205° |
| 2026-04-21 21:02 | 10.71840 | -74.72145 | 5179 ft | 180 kts | 205° |
| 2026-04-21 21:03 | 10.70738 | -74.72742 | 5387 ft | 180 kts | 205° |
| 2026-04-21 21:03 | 10.69637 | -74.73345 | 5587 ft | 180 kts | 205° |
| 2026-04-21 21:03 | 10.68523 | -74.73954 | 5777 ft | 183 kts | 205° |
| 2026-04-21 21:03 | 10.67401 | -74.74570 | 6010 ft | 184 kts | 205° |
| 2026-04-21 21:04 | 10.66273 | -74.75192 | 6200 ft | 185 kts | 205° |
| 2026-04-21 21:04 | 10.65138 | -74.75817 | 6390 ft | 186 kts | 205° |
| 2026-04-21 21:04 | 10.64024 | -74.76483 | 6566 ft | 187 kts | 213° |
| 2026-04-21 21:04 | 10.63137 | -74.77452 | 6666 ft | 190 kts | 238° |
| 2026-04-21 21:05 | 10.62547 | -74.78650 | 6892 ft | 188 kts | 240° |
| 2026-04-21 21:05 | 10.61623 | -74.79552 | 7092 ft | 188 kts | 197° |
| 2026-04-21 21:05 | 10.60396 | -74.79966 | 7235 ft | 187 kts | 202° |
| 2026-04-21 21:05 | 10.59179 | -74.80420 | 7445 ft | 187 kts | 183° |
| 2026-04-21 21:06 | 10.57906 | -74.80456 | 7609 ft | 186 kts | 182° |
| 2026-04-21 21:06 | 10.56634 | -74.80267 | 7806 ft | 186 kts | 152° |
| 2026-04-21 21:06 | 10.55600 | -74.79506 | 7999 ft | 183 kts | 137° |
| 2026-04-21 21:06 | 10.54475 | -74.78869 | 8069 ft | 190 kts | 158° |
| 2026-04-21 21:07 | 10.53194 | -74.78533 | 8261 ft | 190 kts | 162° |
| 2026-04-21 21:07 | 10.51919 | -74.78183 | 8468 ft | 189 kts | 160° |
| 2026-04-21 21:07 | 10.50651 | -74.77821 | 8644 ft | 190 kts | 161° |
| 2026-04-21 21:07 | 10.49376 | -74.77460 | 8820 ft | 190 kts | 161° |
| 2026-04-21 21:08 | 10.48098 | -74.77099 | 9004 ft | 191 kts | 161° |
| 2026-04-21 21:08 | 10.46818 | -74.76736 | 9187 ft | 191 kts | 160° |
| 2026-04-21 21:08 | 10.45536 | -74.76372 | 9369 ft | 191 kts | 161° |
| 2026-04-21 21:08 | 10.44251 | -74.76009 | 9550 ft | 192 kts | 161° |
| 2026-04-21 21:09 | 10.42963 | -74.75644 | 9702 ft | 193 kts | 161° |
| 2026-04-21 21:09 | 10.41658 | -74.75275 | 9858 ft | 195 kts | 161° |
| 2026-04-21 21:09 | 10.40350 | -74.74904 | 10007 ft | 196 kts | 161° |
| 2026-04-21 21:09 | 10.39048 | -74.74538 | 10164 ft | 196 kts | 161° |
| 2026-04-21 21:10 | 10.37732 | -74.74165 | 10323 ft | 197 kts | 161° |
| 2026-04-21 21:10 | 10.36409 | -74.73788 | 10477 ft | 197 kts | 161° |
| 2026-04-21 21:10 | 10.35082 | -74.73416 | 10651 ft | 198 kts | 161° |
| 2026-04-21 21:10 | 10.33758 | -74.73040 | 10808 ft | 198 kts | 161° |
| 2026-04-21 21:11 | 10.32430 | -74.72664 | 10971 ft | 198 kts | 161° |
| 2026-04-21 21:11 | 10.31100 | -74.72287 | 11130 ft | 198 kts | 160° |
| 2026-04-21 21:11 | 10.29772 | -74.71909 | 11281 ft | 199 kts | 161° |
| 2026-04-21 21:11 | 10.28439 | -74.71533 | 11446 ft | 199 kts | 161° |
| 2026-04-21 21:12 | 10.27107 | -74.71159 | 11600 ft | 199 kts | 161° |
| 2026-04-21 21:12 | 10.25767 | -74.70781 | 11757 ft | 199 kts | 160° |
| 2026-04-21 21:12 | 10.24429 | -74.70399 | 11909 ft | 200 kts | 161° |
| 2026-04-21 21:12 | 10.23107 | -74.70030 | 12068 ft | 200 kts | 161° |
| 2026-04-21 21:13 | 10.21767 | -74.69649 | 12229 ft | 200 kts | 161° |
| 2026-04-21 21:13 | 10.20423 | -74.69271 | 12384 ft | 200 kts | 161° |
| 2026-04-21 21:13 | 10.19078 | -74.68888 | 12534 ft | 201 kts | 161° |
| 2026-04-21 21:13 | 10.17733 | -74.68510 | 12703 ft | 201 kts | 161° |
| 2026-04-21 21:14 | 10.16386 | -74.68128 | 12858 ft | 201 kts | 161° |
| 2026-04-21 21:14 | 10.15035 | -74.67748 | 13017 ft | 202 kts | 161° |
| 2026-04-21 21:14 | 10.13681 | -74.67365 | 13171 ft | 202 kts | 161° |
| 2026-04-21 21:14 | 10.12328 | -74.66982 | 13327 ft | 202 kts | 161° |
| 2026-04-21 21:15 | 10.10969 | -74.66595 | 13484 ft | 202 kts | 161° |
| 2026-04-21 21:15 | 10.09610 | -74.66217 | 13637 ft | 203 kts | 161° |
| 2026-04-21 21:15 | 10.08251 | -74.65831 | 13779 ft | 203 kts | 160° |
| 2026-04-21 21:15 | 10.06890 | -74.65447 | 13909 ft | 203 kts | 161° |
| 2026-04-21 21:16 | 10.05531 | -74.65064 | 14041 ft | 203 kts | 160° |
| 2026-04-21 21:16 | 10.04191 | -74.64686 | 14161 ft | 202 kts | 161° |
| 2026-04-21 21:16 | 10.02834 | -74.64302 | 14288 ft | 202 kts | 160° |
| 2026-04-21 21:16 | 10.01480 | -74.63920 | 14412 ft | 202 kts | 160° |
| 2026-04-21 21:17 | 10.00122 | -74.63537 | 14534 ft | 202 kts | 160° |
| 2026-04-21 21:17 | 9.98771 | -74.63155 | 14649 ft | 202 kts | 160° |
| 2026-04-21 21:17 | 9.97420 | -74.62774 | 14769 ft | 201 kts | 160° |
| 2026-04-21 21:17 | 9.96069 | -74.62393 | 14881 ft | 201 kts | 161° |
| 2026-04-21 21:18 | 9.94719 | -74.62013 | 14988 ft | 201 kts | 160° |
| 2026-04-21 21:18 | 9.93374 | -74.61632 | 15094 ft | 201 kts | 160° |
| 2026-04-21 21:18 | 9.92001 | -74.61244 | 15086 ft | 208 kts | 160° |
| 2026-04-21 21:18 | 9.90590 | -74.60846 | 15069 ft | 214 kts | 160° |
| 2026-04-21 21:19 | 9.89129 | -74.60435 | 15013 ft | 221 kts | 160° |
| 2026-04-21 21:19 | 9.87620 | -74.60009 | 14958 ft | 228 kts | 161° |
| 2026-04-21 21:19 | 9.86076 | -74.59573 | 14903 ft | 234 kts | 160° |
| 2026-04-21 21:19 | 9.84510 | -74.59131 | 14832 ft | 239 kts | 161° |
| 2026-04-21 21:20 | 9.82905 | -74.58680 | 14829 ft | 240 kts | 161° |
| 2026-04-21 21:20 | 9.81292 | -74.58225 | 14829 ft | 241 kts | 160° |
| 2026-04-21 21:20 | 9.79677 | -74.57769 | 14821 ft | 242 kts | 161° |
| 2026-04-21 21:20 | 9.78058 | -74.57317 | 14871 ft | 240 kts | 161° |
| 2026-04-21 21:21 | 9.76445 | -74.56866 | 14870 ft | 241 kts | 161° |
| 2026-04-21 21:21 | 9.74827 | -74.56411 | 14869 ft | 241 kts | 160° |
| 2026-04-21 21:21 | 9.73207 | -74.55953 | 14868 ft | 242 kts | 160° |
| 2026-04-21 21:21 | 9.71584 | -74.55494 | 14866 ft | 242 kts | 161° |
| 2026-04-21 21:22 | 9.69952 | -74.55038 | 14867 ft | 243 kts | 160° |
| 2026-04-21 21:22 | 9.68322 | -74.54580 | 14864 ft | 243 kts | 161° |
| 2026-04-21 21:22 | 9.66689 | -74.54123 | 14865 ft | 243 kts | 161° |
| 2026-04-21 21:22 | 9.65058 | -74.53663 | 14863 ft | 243 kts | 160° |
| 2026-04-21 21:23 | 9.63424 | -74.53204 | 14863 ft | 244 kts | 161° |
| 2026-04-21 21:23 | 9.61789 | -74.52746 | 14863 ft | 244 kts | 160° |
| 2026-04-21 21:23 | 9.60172 | -74.52291 | 14864 ft | 245 kts | 160° |
| 2026-04-21 21:23 | 9.58534 | -74.51830 | 14864 ft | 245 kts | 160° |
| 2026-04-21 21:24 | 9.56892 | -74.51366 | 14861 ft | 245 kts | 160° |
| 2026-04-21 21:24 | 9.55248 | -74.50901 | 14863 ft | 245 kts | 160° |
| 2026-04-21 21:24 | 9.53601 | -74.50440 | 14864 ft | 246 kts | 161° |
| 2026-04-21 21:24 | 9.51952 | -74.49974 | 14863 ft | 246 kts | 160° |
| 2026-04-21 21:25 | 9.50304 | -74.49505 | 14866 ft | 246 kts | 160° |
| 2026-04-21 21:25 | 9.48652 | -74.49041 | 14864 ft | 246 kts | 160° |
| 2026-04-21 21:25 | 9.47001 | -74.48576 | 14866 ft | 246 kts | 160° |
| 2026-04-21 21:25 | 9.45349 | -74.48111 | 14864 ft | 246 kts | 160° |
| 2026-04-21 21:26 | 9.43700 | -74.47645 | 14863 ft | 246 kts | 160° |
| 2026-04-21 21:26 | 9.42046 | -74.47180 | 14864 ft | 246 kts | 160° |
| 2026-04-21 21:26 | 9.40395 | -74.46713 | 14864 ft | 246 kts | 161° |
| 2026-04-21 21:26 | 9.38769 | -74.46257 | 14863 ft | 246 kts | 160° |
| 2026-04-21 21:27 | 9.37119 | -74.45792 | 14862 ft | 246 kts | 160° |
| 2026-04-21 21:27 | 9.35469 | -74.45327 | 14861 ft | 246 kts | 160° |
| 2026-04-21 21:27 | 9.33821 | -74.44861 | 14860 ft | 246 kts | 161° |
| 2026-04-21 21:27 | 9.32167 | -74.44398 | 14863 ft | 246 kts | 161° |
| 2026-04-21 21:28 | 9.30516 | -74.43932 | 14860 ft | 246 kts | 161° |
| 2026-04-21 21:28 | 9.28867 | -74.43467 | 14859 ft | 246 kts | 161° |
| 2026-04-21 21:28 | 9.25550 | -74.42563 | 14866 ft | 249 kts | 164° |
| 2026-04-21 21:29 | 9.23869 | -74.42107 | 14879 ft | 250 kts | 162° |
| 2026-04-21 21:29 | 9.22190 | -74.41616 | 14879 ft | 253 kts | 162° |
| 2026-04-21 21:29 | 9.20495 | -74.41127 | 14882 ft | 254 kts | 162° |
| 2026-04-21 21:29 | 9.18786 | -74.40645 | 14880 ft | 256 kts | 162° |
| 2026-04-21 21:30 | 9.17087 | -74.40166 | 14881 ft | 257 kts | 162° |
| 2026-04-21 21:30 | 9.15366 | -74.39682 | 14876 ft | 258 kts | 162° |
| 2026-04-21 21:30 | 9.13635 | -74.39192 | 14879 ft | 258 kts | 162° |
| 2026-04-21 21:30 | 9.11905 | -74.38708 | 14878 ft | 258 kts | 163° |
| 2026-04-21 21:31 | 9.10169 | -74.38223 | 14878 ft | 259 kts | 162° |
| 2026-04-21 21:31 | 9.08432 | -74.37734 | 14878 ft | 259 kts | 162° |
| 2026-04-21 21:31 | 9.06691 | -74.37245 | 14876 ft | 260 kts | 163° |
| 2026-04-21 21:31 | 9.04948 | -74.36754 | 14877 ft | 260 kts | 162° |
| 2026-04-21 21:32 | 9.03202 | -74.36260 | 14877 ft | 260 kts | 162° |
| 2026-04-21 21:32 | 9.01455 | -74.35769 | 14875 ft | 261 kts | 163° |
| 2026-04-21 21:32 | 8.99706 | -74.35280 | 14874 ft | 261 kts | 163° |
| 2026-04-21 21:32 | 8.97959 | -74.34789 | 14873 ft | 261 kts | 162° |
| 2026-04-21 21:33 | 8.96208 | -74.34297 | 14870 ft | 261 kts | 163° |
| 2026-04-21 21:33 | 8.94462 | -74.33806 | 14870 ft | 261 kts | 163° |
| 2026-04-21 21:33 | 8.92712 | -74.33316 | 14863 ft | 259 kts | 163° |
| 2026-04-21 21:33 | 8.90983 | -74.32830 | 14862 ft | 256 kts | 163° |
| 2026-04-21 21:34 | 8.89306 | -74.32361 | 14864 ft | 252 kts | 163° |
| 2026-04-21 21:34 | 8.87624 | -74.31890 | 14865 ft | 250 kts | 163° |
| 2026-04-21 21:34 | 8.85951 | -74.31421 | 14864 ft | 249 kts | 163° |
| 2026-04-21 21:34 | 8.84286 | -74.30954 | 14864 ft | 248 kts | 162° |
| 2026-04-21 21:35 | 8.82628 | -74.30486 | 14864 ft | 247 kts | 163° |
| 2026-04-21 21:35 | 8.80969 | -74.30021 | 14865 ft | 247 kts | 163° |
| 2026-04-21 21:35 | 8.79318 | -74.29559 | 14865 ft | 246 kts | 163° |
| 2026-04-21 21:35 | 8.77670 | -74.29096 | 14866 ft | 246 kts | 163° |
| 2026-04-21 21:36 | 8.76580 | -74.28791 | 14865 ft | 246 kts | 163° |
| 2026-04-21 21:36 | 8.74379 | -74.28174 | 14864 ft | 245 kts | 163° |
| 2026-04-21 21:36 | 8.73293 | -74.27868 | 14870 ft | 245 kts | 163° |
| 2026-04-21 21:36 | 8.71115 | -74.27258 | 14869 ft | 245 kts | 163° |
| 2026-04-21 21:37 | 8.69477 | -74.26799 | 14870 ft | 244 kts | 163° |
| 2026-04-21 21:37 | 8.67840 | -74.26340 | 14868 ft | 244 kts | 163° |
| 2026-04-21 21:37 | 8.66201 | -74.25881 | 14867 ft | 244 kts | 163° |
| 2026-04-21 21:37 | 8.65094 | -74.25571 | 14876 ft | 244 kts | 163° |
| 2026-04-21 21:38 | 8.63480 | -74.25117 | 14870 ft | 244 kts | 163° |
| 2026-04-21 21:38 | 8.61846 | -74.24661 | 14871 ft | 243 kts | 163° |
| 2026-04-21 21:38 | 8.60214 | -74.24202 | 14877 ft | 243 kts | 163° |
| 2026-04-21 21:38 | 8.58580 | -74.23745 | 14876 ft | 243 kts | 163° |
| 2026-04-21 21:39 | 8.56945 | -74.23287 | 14875 ft | 243 kts | 163° |
| 2026-04-21 21:39 | 8.55314 | -74.22829 | 14881 ft | 243 kts | 163° |
| 2026-04-21 21:39 | 8.53679 | -74.22374 | 14880 ft | 243 kts | 163° |
| 2026-04-21 21:39 | 8.52046 | -74.21915 | 14880 ft | 244 kts | 163° |
| 2026-04-21 21:40 | 8.50412 | -74.21456 | 14883 ft | 244 kts | 163° |
| 2026-04-21 21:40 | 8.48777 | -74.21000 | 14884 ft | 244 kts | 163° |
| 2026-04-21 21:40 | 8.47145 | -74.20545 | 14887 ft | 244 kts | 163° |
| 2026-04-21 21:40 | 8.45509 | -74.20085 | 14890 ft | 244 kts | 163° |
| 2026-04-21 21:41 | 8.43872 | -74.19626 | 14888 ft | 244 kts | 163° |
| 2026-04-21 21:41 | 8.42236 | -74.19169 | 14888 ft | 244 kts | 163° |
| 2026-04-21 21:41 | 8.40622 | -74.18717 | 14889 ft | 244 kts | 163° |
| 2026-04-21 21:41 | 8.38984 | -74.18258 | 14889 ft | 244 kts | 163° |
| 2026-04-21 21:42 | 8.37348 | -74.17799 | 14891 ft | 244 kts | 163° |
| 2026-04-21 21:42 | 8.35711 | -74.17342 | 14894 ft | 244 kts | 163° |
| 2026-04-21 21:42 | 8.34070 | -74.16884 | 14891 ft | 244 kts | 163° |
| 2026-04-21 21:42 | 8.32429 | -74.16423 | 14894 ft | 244 kts | 163° |
| 2026-04-21 21:43 | 8.30794 | -74.15967 | 14897 ft | 244 kts | 163° |
| 2026-04-21 21:43 | 8.29152 | -74.15507 | 14896 ft | 244 kts | 163° |
| 2026-04-21 21:43 | 8.27514 | -74.15048 | 14894 ft | 244 kts | 163° |
| 2026-04-21 21:43 | 8.25877 | -74.14588 | 14902 ft | 244 kts | 163° |
| 2026-04-21 21:44 | 8.24264 | -74.14140 | 14900 ft | 244 kts | 163° |
| 2026-04-21 21:44 | 8.22625 | -74.13683 | 14899 ft | 244 kts | 163° |
| 2026-04-21 21:44 | 8.20991 | -74.13225 | 14900 ft | 244 kts | 163° |
| 2026-04-21 21:44 | 8.19357 | -74.12767 | 14898 ft | 244 kts | 163° |
| 2026-04-21 21:45 | 8.17721 | -74.12311 | 14902 ft | 244 kts | 163° |
| 2026-04-21 21:45 | 8.16087 | -74.11854 | 14901 ft | 244 kts | 163° |
| 2026-04-21 21:45 | 8.14456 | -74.11397 | 14900 ft | 244 kts | 163° |
| 2026-04-21 21:45 | 8.12820 | -74.10940 | 14903 ft | 244 kts | 163° |
| 2026-04-21 21:46 | 8.11186 | -74.10482 | 14905 ft | 244 kts | 163° |
| 2026-04-21 21:46 | 8.09550 | -74.10024 | 14905 ft | 244 kts | 163° |
| 2026-04-21 21:46 | 8.07917 | -74.09569 | 14904 ft | 244 kts | 163° |
| 2026-04-21 21:46 | 8.06281 | -74.09115 | 14905 ft | 244 kts | 163° |
| 2026-04-21 21:47 | 8.04670 | -74.08663 | 14903 ft | 244 kts | 163° |
| 2026-04-21 21:47 | 8.03033 | -74.08205 | 14903 ft | 244 kts | 163° |
| 2026-04-21 21:47 | 8.01398 | -74.07748 | 14901 ft | 244 kts | 163° |
| 2026-04-21 21:47 | 7.99759 | -74.07291 | 14900 ft | 244 kts | 163° |
| 2026-04-21 21:48 | 7.98126 | -74.06835 | 14899 ft | 244 kts | 163° |
| 2026-04-21 21:48 | 7.96489 | -74.06381 | 14905 ft | 244 kts | 163° |
| 2026-04-21 21:48 | 7.94852 | -74.05928 | 14902 ft | 244 kts | 163° |
| 2026-04-21 21:48 | 7.93214 | -74.05474 | 14898 ft | 244 kts | 163° |
| 2026-04-21 21:49 | 7.91578 | -74.05021 | 14899 ft | 244 kts | 163° |
| 2026-04-21 21:49 | 7.89939 | -74.04566 | 14897 ft | 244 kts | 163° |
| 2026-04-21 21:49 | 7.88299 | -74.04112 | 14896 ft | 244 kts | 163° |
| 2026-04-21 21:49 | 7.86661 | -74.03658 | 14894 ft | 244 kts | 163° |
| 2026-04-21 21:50 | 7.85020 | -74.03203 | 14891 ft | 244 kts | 163° |
| 2026-04-21 21:50 | 7.83383 | -74.02751 | 14892 ft | 244 kts | 164° |
| 2026-04-21 21:50 | 7.81763 | -74.02300 | 14889 ft | 244 kts | 163° |
| 2026-04-21 21:50 | 7.80125 | -74.01844 | 14889 ft | 244 kts | 163° |
| 2026-04-21 21:51 | 7.78487 | -74.01393 | 14889 ft | 244 kts | 163° |
| 2026-04-21 21:51 | 7.76851 | -74.00941 | 14886 ft | 244 kts | 163° |
| 2026-04-21 21:51 | 7.75213 | -74.00487 | 14887 ft | 244 kts | 163° |
| 2026-04-21 21:51 | 7.73581 | -74.00035 | 14884 ft | 244 kts | 163° |
| 2026-04-21 21:52 | 7.71944 | -73.99582 | 14886 ft | 244 kts | 163° |
| 2026-04-21 21:52 | 7.70306 | -73.99128 | 14883 ft | 244 kts | 164° |
| 2026-04-21 21:52 | 7.68670 | -73.98676 | 14882 ft | 244 kts | 163° |
| 2026-04-21 21:52 | 7.67036 | -73.98223 | 14882 ft | 244 kts | 163° |
| 2026-04-21 21:53 | 7.65404 | -73.97772 | 14884 ft | 243 kts | 163° |
| 2026-04-21 21:53 | 7.63768 | -73.97319 | 14882 ft | 243 kts | 163° |
| 2026-04-21 21:53 | 7.62135 | -73.96867 | 14875 ft | 243 kts | 163° |
| 2026-04-21 21:53 | 7.60502 | -73.96415 | 14876 ft | 243 kts | 163° |
| 2026-04-21 21:54 | 7.58867 | -73.95963 | 14878 ft | 243 kts | 163° |
| 2026-04-21 21:54 | 7.57233 | -73.95511 | 14875 ft | 243 kts | 163° |
| 2026-04-21 21:54 | 7.55621 | -73.95065 | 14877 ft | 243 kts | 163° |
| 2026-04-21 21:54 | 7.53988 | -73.94614 | 14874 ft | 243 kts | 163° |
| 2026-04-21 21:55 | 7.52356 | -73.94162 | 14874 ft | 243 kts | 163° |
| 2026-04-21 21:55 | 7.50721 | -73.93710 | 14870 ft | 243 kts | 163° |
| 2026-04-21 21:55 | 7.49089 | -73.93258 | 14870 ft | 243 kts | 163° |
| 2026-04-21 21:55 | 7.47455 | -73.92808 | 14871 ft | 243 kts | 163° |
| 2026-04-21 21:56 | 7.45823 | -73.92353 | 14870 ft | 243 kts | 163° |
| 2026-04-21 21:56 | 7.44193 | -73.91904 | 14875 ft | 243 kts | 163° |
| 2026-04-21 21:56 | 7.42562 | -73.91456 | 14869 ft | 243 kts | 163° |
| 2026-04-21 21:56 | 7.40930 | -73.91003 | 14866 ft | 243 kts | 163° |
| 2026-04-21 21:57 | 7.39303 | -73.90550 | 14868 ft | 243 kts | 163° |
| 2026-04-21 21:57 | 7.37671 | -73.90101 | 14867 ft | 243 kts | 163° |
| 2026-04-21 21:57 | 7.36015 | -73.89841 | 14829 ft | 242 kts | 181° |
| 2026-04-21 21:57 | 7.34413 | -73.90231 | 14851 ft | 240 kts | 202° |
| 2026-04-21 21:58 | 7.32925 | -73.90984 | 14878 ft | 240 kts | 207° |
| 2026-04-21 21:58 | 7.31433 | -73.91741 | 14883 ft | 240 kts | 204° |
| 2026-04-21 21:58 | 7.29879 | -73.92427 | 14878 ft | 241 kts | 202° |
| 2026-04-21 21:58 | 7.28361 | -73.93088 | 14878 ft | 241 kts | 202° |
| 2026-04-21 21:59 | 7.26826 | -73.93776 | 14875 ft | 242 kts | 203° |
| 2026-04-21 21:59 | 7.25289 | -73.94465 | 14873 ft | 242 kts | 203° |
| 2026-04-21 21:59 | 7.23750 | -73.95153 | 14873 ft | 242 kts | 203° |
| 2026-04-21 21:59 | 7.22210 | -73.95842 | 14873 ft | 242 kts | 202° |
| 2026-04-21 22:00 | 7.20665 | -73.96530 | 14870 ft | 243 kts | 202° |
| 2026-04-21 22:00 | 7.19118 | -73.97219 | 14872 ft | 243 kts | 202° |
| 2026-04-21 22:00 | 7.17573 | -73.97912 | 14869 ft | 243 kts | 202° |
| 2026-04-21 22:00 | 7.16030 | -73.98601 | 14866 ft | 243 kts | 202° |
| 2026-04-21 22:01 | 7.14486 | -73.99291 | 14865 ft | 243 kts | 202° |
| 2026-04-21 22:01 | 7.12940 | -73.99980 | 14863 ft | 243 kts | 203° |
| 2026-04-21 22:01 | 7.11398 | -74.00670 | 14862 ft | 243 kts | 202° |
| 2026-04-21 22:01 | 7.09854 | -74.01358 | 14860 ft | 243 kts | 203° |
| 2026-04-21 22:02 | 7.08313 | -74.02047 | 14855 ft | 242 kts | 202° |
| 2026-04-21 22:02 | 7.06785 | -74.02727 | 14858 ft | 242 kts | 202° |
| 2026-04-21 22:02 | 7.05245 | -74.03416 | 14856 ft | 242 kts | 203° |
| 2026-04-21 22:02 | 7.03705 | -74.04104 | 14858 ft | 242 kts | 202° |
| 2026-04-21 22:03 | 7.02164 | -74.04791 | 14867 ft | 242 kts | 202° |
| 2026-04-21 22:03 | 7.00626 | -74.05477 | 14861 ft | 242 kts | 202° |
| 2026-04-21 22:03 | 6.99083 | -74.06167 | 14864 ft | 242 kts | 202° |
| 2026-04-21 22:03 | 6.97544 | -74.06854 | 14865 ft | 242 kts | 202° |
| 2026-04-21 22:04 | 6.96005 | -74.07540 | 14865 ft | 242 kts | 202° |
| 2026-04-21 22:04 | 6.94467 | -74.08224 | 14865 ft | 242 kts | 202° |
| 2026-04-21 22:04 | 6.92927 | -74.08913 | 14864 ft | 242 kts | 203° |
| 2026-04-21 22:04 | 6.91385 | -74.09601 | 14866 ft | 242 kts | 202° |
| 2026-04-21 22:05 | 6.89845 | -74.10286 | 14871 ft | 242 kts | 202° |
| 2026-04-21 22:05 | 6.88305 | -74.10974 | 14869 ft | 242 kts | 202° |
| 2026-04-21 22:05 | 6.86786 | -74.11652 | 14872 ft | 242 kts | 203° |
| 2026-04-21 22:05 | 6.85245 | -74.12339 | 14873 ft | 242 kts | 202° |
| 2026-04-21 22:06 | 6.83703 | -74.13026 | 14870 ft | 242 kts | 202° |
| 2026-04-21 22:06 | 6.82162 | -74.13714 | 14873 ft | 242 kts | 203° |
| 2026-04-21 22:06 | 6.80620 | -74.14402 | 14872 ft | 242 kts | 203° |
| 2026-04-21 22:06 | 6.79079 | -74.15091 | 14872 ft | 242 kts | 203° |
| 2026-04-21 22:07 | 6.77536 | -74.15777 | 14878 ft | 242 kts | 202° |
| 2026-04-21 22:07 | 6.75995 | -74.16464 | 14877 ft | 242 kts | 202° |
| 2026-04-21 22:07 | 6.74404 | -74.17023 | 14881 ft | 243 kts | 188° |
| 2026-04-21 22:07 | 6.72720 | -74.17022 | 14897 ft | 242 kts | 174° |
| 2026-04-21 22:08 | 6.71044 | -74.16872 | 14891 ft | 242 kts | 174° |
| 2026-04-21 22:08 | 6.69361 | -74.16781 | 14889 ft | 242 kts | 176° |
| 2026-04-21 22:08 | 6.67677 | -74.16715 | 14890 ft | 242 kts | 176° |
| 2026-04-21 22:08 | 6.65990 | -74.16639 | 14892 ft | 243 kts | 176° |
| 2026-04-21 22:09 | 6.64303 | -74.16558 | 14896 ft | 243 kts | 176° |
| 2026-04-21 22:09 | 6.62618 | -74.16477 | 14896 ft | 243 kts | 176° |
| 2026-04-21 22:09 | 6.60931 | -74.16398 | 14896 ft | 243 kts | 176° |
| 2026-04-21 22:09 | 6.59243 | -74.16320 | 14895 ft | 243 kts | 176° |
| 2026-04-21 22:10 | 6.57555 | -74.16239 | 14894 ft | 243 kts | 176° |
| 2026-04-21 22:10 | 6.55891 | -74.16162 | 14895 ft | 243 kts | 176° |
| 2026-04-21 22:10 | 6.54203 | -74.16085 | 14897 ft | 243 kts | 176° |
| 2026-04-21 22:10 | 6.52517 | -74.16006 | 14898 ft | 243 kts | 176° |
| 2026-04-21 22:11 | 6.50822 | -74.15923 | 14900 ft | 244 kts | 176° |
| 2026-04-21 22:11 | 6.49125 | -74.15845 | 14903 ft | 244 kts | 176° |
| 2026-04-21 22:11 | 6.47429 | -74.15765 | 14905 ft | 244 kts | 176° |
| 2026-04-21 22:11 | 6.45734 | -74.15685 | 14906 ft | 244 kts | 176° |
| 2026-04-21 22:12 | 6.44035 | -74.15606 | 14909 ft | 244 kts | 176° |
| 2026-04-21 22:12 | 6.42336 | -74.15527 | 14910 ft | 245 kts | 176° |
| 2026-04-21 22:12 | 6.40637 | -74.15447 | 14912 ft | 245 kts | 176° |
| 2026-04-21 22:12 | 6.38933 | -74.15368 | 14913 ft | 245 kts | 176° |
| 2026-04-21 22:13 | 6.37228 | -74.15287 | 14915 ft | 245 kts | 176° |
| 2026-04-21 22:13 | 6.35522 | -74.15206 | 14918 ft | 245 kts | 176° |
| 2026-04-21 22:13 | 6.33814 | -74.15127 | 14923 ft | 245 kts | 176° |
| 2026-04-21 22:13 | 6.32105 | -74.15048 | 14925 ft | 245 kts | 176° |
| 2026-04-21 22:14 | 6.30397 | -74.14970 | 14927 ft | 246 kts | 176° |
| 2026-04-21 22:14 | 6.28711 | -74.14888 | 14936 ft | 246 kts | 176° |
| 2026-04-21 22:14 | 6.27004 | -74.14809 | 14938 ft | 246 kts | 176° |
| 2026-04-21 22:14 | 6.25294 | -74.14728 | 14939 ft | 246 kts | 176° |
| 2026-04-21 22:15 | 6.23582 | -74.14649 | 14948 ft | 246 kts | 176° |
| 2026-04-21 22:15 | 6.21870 | -74.14568 | 14946 ft | 246 kts | 176° |
| 2026-04-21 22:15 | 6.20156 | -74.14488 | 14956 ft | 246 kts | 176° |
| 2026-04-21 22:15 | 6.18443 | -74.14408 | 14961 ft | 246 kts | 176° |
| 2026-04-21 22:16 | 6.16728 | -74.14327 | 14964 ft | 247 kts | 176° |
| 2026-04-21 22:16 | 6.15013 | -74.14247 | 14967 ft | 247 kts | 176° |
| 2026-04-21 22:16 | 6.13298 | -74.14167 | 14972 ft | 247 kts | 176° |
| 2026-04-21 22:16 | 6.11583 | -74.14086 | 14977 ft | 247 kts | 176° |
| 2026-04-21 22:17 | 6.09869 | -74.14005 | 14984 ft | 247 kts | 176° |
| 2026-04-21 22:17 | 6.08156 | -74.13924 | 14988 ft | 247 kts | 176° |
| 2026-04-21 22:17 | 6.06439 | -74.13845 | 14992 ft | 247 kts | 176° |
| 2026-04-21 22:17 | 6.04722 | -74.13764 | 14996 ft | 247 kts | 176° |
| 2026-04-21 22:18 | 6.03011 | -74.13684 | 15001 ft | 246 kts | 176° |
| 2026-04-21 22:18 | 6.01296 | -74.13605 | 15005 ft | 246 kts | 176° |
| 2026-04-21 22:18 | 5.99584 | -74.13524 | 15009 ft | 246 kts | 176° |
| 2026-04-21 22:18 | 5.97893 | -74.13444 | 15015 ft | 246 kts | 176° |
| 2026-04-21 22:19 | 5.96180 | -74.13365 | 15020 ft | 246 kts | 176° |
| 2026-04-21 22:19 | 5.94462 | -74.13284 | 15026 ft | 247 kts | 176° |
| 2026-04-21 22:19 | 5.92747 | -74.13204 | 15026 ft | 247 kts | 176° |
| 2026-04-21 22:19 | 5.91031 | -74.13123 | 15036 ft | 247 kts | 176° |
| 2026-04-21 22:20 | 5.89315 | -74.13044 | 15038 ft | 247 kts | 176° |
| 2026-04-21 22:20 | 5.87598 | -74.12964 | 15045 ft | 247 kts | 176° |
| 2026-04-21 22:20 | 5.85884 | -74.12883 | 15046 ft | 247 kts | 176° |
| 2026-04-21 22:20 | 5.84167 | -74.12801 | 15051 ft | 247 kts | 176° |
| 2026-04-21 22:21 | 5.82448 | -74.12722 | 15057 ft | 247 kts | 176° |
| 2026-04-21 22:21 | 5.80730 | -74.12641 | 15066 ft | 247 kts | 176° |
| 2026-04-21 22:21 | 5.79011 | -74.12562 | 15069 ft | 247 kts | 176° |
| 2026-04-21 22:21 | 5.77291 | -74.12482 | 15070 ft | 247 kts | 176° |
| 2026-04-21 22:22 | 5.75595 | -74.12401 | 15077 ft | 247 kts | 176° |
| 2026-04-21 22:22 | 5.73875 | -74.12320 | 15083 ft | 247 kts | 176° |
| 2026-04-21 22:22 | 5.72155 | -74.12239 | 15082 ft | 247 kts | 176° |
| 2026-04-21 22:22 | 5.70437 | -74.12159 | 15091 ft | 247 kts | 176° |
| 2026-04-21 22:23 | 5.68719 | -74.12080 | 15096 ft | 247 kts | 176° |
| 2026-04-21 22:23 | 5.66998 | -74.11998 | 15098 ft | 247 kts | 176° |
| 2026-04-21 22:23 | 5.65275 | -74.11919 | 15106 ft | 247 kts | 176° |
| 2026-04-21 22:23 | 5.63554 | -74.11838 | 15109 ft | 247 kts | 176° |
| 2026-04-21 22:24 | 5.62415 | -74.11785 | 15111 ft | 247 kts | 176° |
| 2026-04-21 22:24 | 5.60693 | -74.11705 | 15115 ft | 248 kts | 176° |
| 2026-04-21 22:24 | 5.58970 | -74.11623 | 15121 ft | 248 kts | 176° |
| 2026-04-21 22:24 | 5.57248 | -74.11541 | 15128 ft | 247 kts | 176° |
| 2026-04-21 22:25 | 5.55529 | -74.11461 | 15128 ft | 247 kts | 176° |
| 2026-04-21 22:25 | 5.53812 | -74.11382 | 15136 ft | 247 kts | 176° |
| 2026-04-21 22:25 | 5.52096 | -74.11302 | 15139 ft | 247 kts | 176° |
| 2026-04-21 22:25 | 5.50382 | -74.11222 | 15148 ft | 246 kts | 176° |
| 2026-04-21 22:26 | 5.48669 | -74.11142 | 15146 ft | 247 kts | 176° |
| 2026-04-21 22:26 | 5.46953 | -74.11060 | 15150 ft | 247 kts | 176° |
| 2026-04-21 22:26 | 5.45237 | -74.10980 | 15163 ft | 246 kts | 176° |
| 2026-04-21 22:26 | 5.43524 | -74.10907 | 15165 ft | 245 kts | 177° |
| 2026-04-21 22:27 | 5.41854 | -74.11197 | 15134 ft | 245 kts | 200° |
| 2026-04-21 22:27 | 5.40463 | -74.12114 | 15142 ft | 243 kts | 223° |
| 2026-04-21 22:27 | 5.39377 | -74.13408 | 15175 ft | 243 kts | 231° |
| 2026-04-21 22:27 | 5.38343 | -74.14746 | 15181 ft | 243 kts | 230° |
| 2026-04-21 22:28 | 5.37250 | -74.16042 | 15182 ft | 243 kts | 227° |
| 2026-04-21 22:28 | 5.36111 | -74.17301 | 15173 ft | 243 kts | 227° |
| 2026-04-21 22:28 | 5.34980 | -74.18568 | 15172 ft | 244 kts | 227° |
| 2026-04-21 22:28 | 5.33853 | -74.19849 | 15172 ft | 244 kts | 227° |
| 2026-04-21 22:29 | 5.32726 | -74.21126 | 15170 ft | 245 kts | 227° |
| 2026-04-21 22:29 | 5.31592 | -74.22407 | 15165 ft | 245 kts | 227° |
| 2026-04-21 22:29 | 5.30462 | -74.23688 | 15168 ft | 245 kts | 227° |
| 2026-04-21 22:29 | 5.29329 | -74.24971 | 15160 ft | 246 kts | 227° |
| 2026-04-21 22:30 | 5.28209 | -74.26236 | 15154 ft | 246 kts | 227° |
| 2026-04-21 22:30 | 5.27075 | -74.27516 | 15150 ft | 246 kts | 227° |
| 2026-04-21 22:30 | 5.25943 | -74.28803 | 15146 ft | 246 kts | 227° |
| 2026-04-21 22:30 | 5.24806 | -74.30089 | 15144 ft | 246 kts | 227° |
| 2026-04-21 22:31 | 5.23767 | -74.31438 | 15102 ft | 245 kts | 240° |
| 2026-04-21 22:31 | 5.23297 | -74.33061 | 15109 ft | 243 kts | 265° |
| 2026-04-21 22:31 | 5.23413 | -74.34741 | 15133 ft | 242 kts | 277° |
| 2026-04-21 22:31 | 5.23654 | -74.36416 | 15139 ft | 242 kts | 276° |
| 2026-04-21 22:32 | 5.23820 | -74.38102 | 15128 ft | 243 kts | 273° |
| 2026-04-21 22:32 | 5.23932 | -74.39792 | 15114 ft | 243 kts | 273° |
| 2026-04-21 22:32 | 5.24059 | -74.41486 | 15105 ft | 243 kts | 274° |
| 2026-04-21 22:32 | 5.24194 | -74.43175 | 15099 ft | 244 kts | 274° |
| 2026-04-21 22:33 | 5.24330 | -74.44872 | 15092 ft | 244 kts | 274° |
| 2026-04-21 22:33 | 5.24316 | -74.46574 | 15085 ft | 246 kts | 258° |
| 2026-04-21 22:33 | 5.23763 | -74.48189 | 15085 ft | 245 kts | 246° |
| 2026-04-21 22:33 | 5.23099 | -74.49766 | 15077 ft | 246 kts | 247° |
| 2026-04-21 22:34 | 5.22498 | -74.51345 | 15066 ft | 246 kts | 249° |
| 2026-04-21 22:34 | 5.21908 | -74.52962 | 15064 ft | 246 kts | 249° |
| 2026-04-21 22:34 | 5.21305 | -74.54570 | 15053 ft | 246 kts | 248° |
| 2026-04-21 22:34 | 5.20701 | -74.56176 | 15037 ft | 246 kts | 248° |
| 2026-04-21 22:35 | 5.20095 | -74.57786 | 15023 ft | 246 kts | 248° |
| 2026-04-21 22:35 | 5.19471 | -74.59383 | 15014 ft | 246 kts | 244° |
| 2026-04-21 22:35 | 5.18441 | -74.60745 | 15017 ft | 245 kts | 223° |
| 2026-04-21 22:35 | 5.17155 | -74.61872 | 15001 ft | 245 kts | 219° |
| 2026-04-21 22:36 | 5.14654 | -74.64197 | 14988 ft | 245 kts | 223° |
| 2026-04-21 22:36 | 5.13422 | -74.65377 | 14985 ft | 245 kts | 222° |
| 2026-04-21 22:36 | 5.12178 | -74.66551 | 14981 ft | 245 kts | 222° |
| 2026-04-21 22:37 | 5.10935 | -74.67726 | 14976 ft | 245 kts | 222° |
| 2026-04-21 22:37 | 5.09695 | -74.68898 | 14972 ft | 245 kts | 222° |
| 2026-04-21 22:37 | 5.08446 | -74.70066 | 14971 ft | 246 kts | 220° |
| 2026-04-21 22:37 | 5.06963 | -74.70894 | 14988 ft | 245 kts | 198° |
| 2026-04-21 22:38 | 5.05322 | -74.71359 | 14989 ft | 245 kts | 193° |
| 2026-04-21 22:38 | 5.03675 | -74.71828 | 14992 ft | 246 kts | 196° |
| 2026-04-21 22:38 | 5.02070 | -74.72344 | 14998 ft | 246 kts | 197° |
| 2026-04-21 22:38 | 5.00436 | -74.72868 | 15007 ft | 246 kts | 196° |
| 2026-04-21 22:39 | 4.98799 | -74.73374 | 15014 ft | 247 kts | 195° |
| 2026-04-21 22:39 | 4.97095 | -74.73518 | 15025 ft | 247 kts | 172° |
| 2026-04-21 22:39 | 4.95494 | -74.72938 | 15040 ft | 247 kts | 147° |
| 2026-04-21 22:39 | 4.94279 | -74.71742 | 15053 ft | 246 kts | 122° |
| 2026-04-21 22:40 | 4.93672 | -74.70153 | 15070 ft | 245 kts | 97° |
| 2026-04-21 22:40 | 4.93591 | -74.68449 | 15074 ft | 245 kts | 89° |
| 2026-04-21 22:40 | 4.93515 | -74.66737 | 15077 ft | 246 kts | 92° |
| 2026-04-21 22:40 | 4.93350 | -74.65024 | 15091 ft | 247 kts | 94° |
| 2026-04-21 22:41 | 4.93184 | -74.63300 | 15042 ft | 251 kts | 93° |
| 2026-04-21 22:41 | 4.93032 | -74.61546 | 14945 ft | 255 kts | 93° |
| 2026-04-21 22:41 | 4.92883 | -74.59781 | 14852 ft | 258 kts | 93° |
| 2026-04-21 22:41 | 4.92726 | -74.57980 | 14788 ft | 259 kts | 93° |
| 2026-04-21 22:42 | 4.92566 | -74.56187 | 14792 ft | 257 kts | 93° |
| 2026-04-21 22:42 | 4.92409 | -74.54404 | 14795 ft | 256 kts | 93° |
| 2026-04-21 22:42 | 4.92254 | -74.52630 | 14793 ft | 255 kts | 93° |
| 2026-04-21 22:42 | 4.92100 | -74.50863 | 14800 ft | 253 kts | 93° |
| 2026-04-21 22:43 | 4.91947 | -74.49109 | 14812 ft | 253 kts | 93° |
| 2026-04-21 22:43 | 4.91794 | -74.47358 | 14812 ft | 252 kts | 93° |
| 2026-04-21 22:43 | 4.91643 | -74.45609 | 14828 ft | 251 kts | 92° |
| 2026-04-21 22:43 | 4.91491 | -74.43866 | 14829 ft | 250 kts | 93° |
| 2026-04-21 22:44 | 4.91060 | -74.42184 | 14818 ft | 250 kts | 113° |
| 2026-04-21 22:44 | 4.90014 | -74.40790 | 14767 ft | 254 kts | 136° |
| 2026-04-21 22:44 | 4.88491 | -74.39846 | 14545 ft | 264 kts | 155° |
| 2026-04-21 22:44 | 4.86780 | -74.39186 | 14412 ft | 261 kts | 156° |
| 2026-04-21 22:45 | 4.85138 | -74.38432 | 14246 ft | 258 kts | 151° |
| 2026-04-21 22:45 | 4.83584 | -74.37588 | 14061 ft | 256 kts | 149° |
| 2026-04-21 22:45 | 4.82014 | -74.36749 | 13853 ft | 255 kts | 151° |
| 2026-04-21 22:45 | 4.80434 | -74.35942 | 13649 ft | 254 kts | 151° |
| 2026-04-21 22:46 | 4.78867 | -74.35138 | 13471 ft | 251 kts | 151° |
| 2026-04-21 22:46 | 4.77351 | -74.34351 | 13490 ft | 242 kts | 150° |
| 2026-04-21 22:46 | 4.75930 | -74.33477 | 13460 ft | 234 kts | 146° |
| 2026-04-21 22:46 | 4.74545 | -74.32657 | 13469 ft | 228 kts | 148° |
| 2026-04-21 22:47 | 4.73192 | -74.31866 | 13476 ft | 223 kts | 148° |
| 2026-04-21 22:47 | 4.71878 | -74.31074 | 13478 ft | 218 kts | 147° |
| 2026-04-21 22:47 | 4.70593 | -74.30297 | 13481 ft | 214 kts | 147° |
| 2026-04-21 22:47 | 4.69323 | -74.29536 | 13485 ft | 211 kts | 147° |
| 2026-04-21 22:48 | 4.68087 | -74.28765 | 13485 ft | 208 kts | 141° |
| 2026-04-21 22:48 | 4.67025 | -74.27803 | 13507 ft | 202 kts | 134° |
| 2026-04-21 22:48 | 4.66014 | -74.26847 | 13496 ft | 198 kts | 135° |
| 2026-04-21 22:48 | 4.65006 | -74.25936 | 13520 ft | 192 kts | 136° |
| 2026-04-21 22:49 | 4.64033 | -74.25057 | 13506 ft | 184 kts | 135° |
| 2026-04-21 22:49 | 4.63120 | -74.24181 | 13472 ft | 180 kts | 128° |
| 2026-04-21 22:49 | 4.62413 | -74.23153 | 13354 ft | 180 kts | 120° |
| 2026-04-21 22:49 | 4.61710 | -74.22095 | 13202 ft | 183 kts | 122° |
| 2026-04-21 22:50 | 4.60985 | -74.21052 | 13035 ft | 186 kts | 122° |
| 2026-04-21 22:50 | 4.60243 | -74.19979 | 12901 ft | 188 kts | 122° |
| 2026-04-21 22:50 | 4.59497 | -74.18896 | 12742 ft | 189 kts | 122° |
| 2026-04-21 22:50 | 4.58823 | -74.17802 | 12547 ft | 183 kts | 110° |
| 2026-04-21 22:51 | 4.58693 | -74.16550 | 12358 ft | 182 kts | 77° |
| 2026-04-21 22:51 | 4.59132 | -74.15382 | 12124 ft | 177 kts | 62° |
| 2026-04-21 22:51 | 4.59611 | -74.14244 | 11852 ft | 177 kts | 66° |
| 2026-04-21 22:51 | 4.60033 | -74.13092 | 11596 ft | 176 kts | 67° |
| 2026-04-21 22:52 | 4.60454 | -74.11941 | 11342 ft | 176 kts | 67° |
| 2026-04-21 22:52 | 4.60877 | -74.10793 | 11107 ft | 176 kts | 67° |
| 2026-04-21 22:52 | 4.61416 | -74.09714 | 10841 ft | 171 kts | 48° |
| 2026-04-21 22:52 | 4.62391 | -74.09082 | 10536 ft | 167 kts | 13° |
| 2026-04-21 22:53 | 4.63519 | -74.08875 | 10283 ft | 164 kts | 7° |
| 2026-04-21 22:53 | 4.64636 | -74.08931 | 10002 ft | 159 kts | 340° |
| 2026-04-21 22:53 | 4.65605 | -74.09337 | 9879 ft | 146 kts | 335° |
| 2026-04-21 22:53 | 4.66501 | -74.09695 | 9766 ft | 133 kts | 336° |
| 2026-04-21 22:54 | 4.67297 | -74.10088 | 9554 ft | 121 kts | 327° |
| 2026-04-21 22:54 | 4.67866 | -74.10660 | 9241 ft | 118 kts | 304° |
| 2026-04-21 22:54 | 4.68368 | -74.11322 | 8841 ft | 118 kts | 306° |
| 2026-04-21 22:54 | 4.68863 | -74.11948 | 8562 ft | 109 kts | 305° |
| 2026-04-21 22:55 | 4.69301 | -74.12521 | 8407 ft | 98 kts | 307° |
| 2026-04-21 22:55 | 4.69690 | -74.13046 | 8368 ft | 87 kts | 308° |
| 2026-04-21 22:55 | 4.69922 | -74.13369 | 8370 ft | 25 kts | 275° |
| 2026-04-21 22:55 | 4.69915 | -74.13448 | 8370 ft | 0 kts | 263° |
| 2026-04-21 22:56 | 4.69912 | -74.13465 | 8370 ft | 7 kts | 261° |
| 2026-04-21 22:57 | 4.69903 | -74.13530 | 8370 ft | 11 kts | 261° |
| 2026-04-21 22:57 | 4.69892 | -74.13610 | 8369 ft | 12 kts | 263° |
| 2026-04-21 22:57 | 4.69878 | -74.13699 | 8369 ft | 12 kts | 258° |
| 2026-04-21 22:57 | 4.69842 | -74.13770 | 8370 ft | 11 kts | 263° |
| 2026-04-21 22:58 | 4.69876 | -74.13837 | 8370 ft | 12 kts | 304° |
| 2026-04-21 22:58 | 4.69884 | -74.13891 | 8369 ft | 7 kts | 221° |
| 2026-04-21 22:58 | 4.69851 | -74.13916 | 8370 ft | 5 kts | 217° |
| 2026-04-21 22:58 | 4.69838 | -74.13926 | 8370 ft | 0 kts | 218° |